• Join FlightAware (Why Join?)
  • Login
  • US Flag 
06:33AM EST


 

Airport Tracker/Info


-or-


 

Live Flight TrackerFlight Track Log ✈ SWA830 ✈ 29-Jun-2013 ✈ KOAK - KBUR

Flight Track Log - Related Links

Times and Time Zones

All times are in EDT time to prevent confusion due to time zone crossing. See the SWA830 flight status page for this flight to view local times or setup timezone preferences in your user account.

Time Position Orientation Groundspeed Altitude Reporting Facility
EDT Latitude Longitude Course Direction KTS MPH feet Rate Location/Type
12:00PM 37.7167 -122.2333 310° West 150 173 700  Level Northern Cal TRACON
12:01PM 37.7500 -122.2833 310° West 192 221 3,000 2,220 Climbing Northern Cal TRACON
12:02PM 37.7667 -122.3667 284° West 247 284 5,200 2,940 Climbing Northern Cal TRACON
12:03PM 37.7333 -122.4500 243° Southwest 293 337 8,900 2,520 Climbing Northern Cal TRACON
12:04PM 37.6667 -122.4667 191° South 300 345 10,000 1,920 Climbing Northern Cal TRACON
12:05PM 37.6047 -122.4844 193° South 300 345 12,200 3,240 Climbing Oakland Center
12:06PM 37.5286 -122.4603 166° South 309 356 16,000 3,300 Climbing Oakland Center
12:07PM 37.4622 -122.3844 138° Southeast 322 371 19,000 3,000 Climbing Oakland Center
12:08PM 37.3742 -122.2875 139° Southeast 350 403 22,100 2,520 Climbing Oakland Center
12:09PM 37.2906 -122.1947 139° Southeast 398 458 24,200 2,100 Climbing Oakland Center
12:10PM 37.2025 -122.0981 139° Southeast 418 481 26,500 2,340 Climbing Oakland Center
12:11PM 37.1114 -121.9972 139° Southeast 435 501 29,100 2,580 Climbing Oakland Center
12:12PM 37.0214 -121.8997 139° Southeast 428 493 31,900 1,860 Climbing Oakland Center
12:13PM 36.9325 -121.8017 139° Southeast 427 491 33,000 480 Climbing Oakland Center
12:14PM 36.8389 -121.7044 140° Southeast 434 499 33,000  Level Oakland Center
12:15PM 36.7447 -121.6033 139° Southeast 447 514 33,000  Level Oakland Center
12:16PM 36.6319 -121.4783 138° Southeast 451 519 33,000  Level Oakland Center
12:17PM 36.5358 -121.3747 139° Southeast 455 524 33,000  Level Oakland Center
12:18PM 36.4406 -121.2733 139° Southeast 451 519 33,000  Level Oakland Center
12:19PM 36.3450 -121.1722 140° Southeast 451 519 33,000  Level Oakland Center
12:20PM 36.2511 -121.0717 139° Southeast 445 512 33,000  Level Oakland Center
12:21PM 36.1581 -120.9736 140° Southeast 439 505 33,000  Level Oakland Center
12:22PM 36.0650 -120.8761 140° Southeast 439 505 33,000  Level Oakland Center
12:23PM 35.9708 -120.7744 139° Southeast 444 511 33,000  Level Oakland Center
12:24PM 35.8761 -120.6767 140° Southeast 443 510 33,000  Level Oakland Center
12:25PM 35.7572 -120.5519 140° Southeast 460 529 33,000  Level Oakland Center
12:26PM 35.6572 -120.4467 139° Southeast 469 540 33,000  Level Oakland Center
12:27PM 35.5572 -120.3408 139° Southeast 470 541 33,000 -300 Level Oakland Center
12:28PM 35.4575 -120.2222 136° Southeast 491 565 32,500 -780 Descending Oakland Center
12:29PM 35.3603 -120.1039 135° Southeast 484 557 31,500 -1,020 Descending Oakland Center
12:30PM 35.2667 -119.9903 135° Southeast 475 547 30,500 -900 Descending Oakland Center
12:31PM 35.2306 -119.9464 135° Southeast 472 543 30,100 -1,020 Descending Los Angeles Center
12:32PM 35.1197 -119.8108 135° Southeast 468 539 28,900 -1,260 Descending Los Angeles Center
12:33PM 35.0297 -119.7022 135° Southeast 457 526 27,500 -2,040 Descending Los Angeles Center
12:34PM 34.9428 -119.5983 136° Southeast 440 506 24,800 -2,580 Descending Los Angeles Center
12:35PM 34.8614 -119.4972 134° Southeast 422 486 22,200 -2,760 Descending Los Angeles Center
12:36PM 34.7669 -119.3842 135° Southeast 399 459 19,200 -2,760 Descending Los Angeles Center
12:37PM 34.6914 -119.2922 135° Southeast 387 445 16,600 -2,460 Descending Los Angeles Center
12:38PM 34.6192 -119.2064 136° Southeast 367 422 14,200 -2,220 Descending Los Angeles Center
12:39PM 34.5539 -119.1325 137° Southeast 354 407 12,100 -1,680 Descending Los Angeles Center
12:40PM 34.4775 -119.0403 135° Southeast 309 356 10,800 -1,140 Descending Los Angeles Center
12:41PM 34.4219 -118.9675 133° Southeast 291 335 9,800 -960 Descending Los Angeles Center
12:42PM 34.3750 -118.8881 126° Southeast 289 333 8,700 -1,320 Descending Los Angeles Center
12:44PM 34.3139 -118.7953 129° Southeast 292 336 6,900 -960 Descending Los Angeles Center
12:45PM 34.2697 -118.7219 126° Southeast 276 318 6,600 -720 Descending Los Angeles Center
12:46PM 34.2089 -118.6244 127° Southeast 265 305 5,400 -1,320 Descending Los Angeles Center
12:47PM 34.1997 -118.5528 99° East 243 280 3,900 -1,200 Descending Los Angeles Center
12:48PM 34.1997 -118.4808 90° East 226 260 2,900 -1,140 Descending Los Angeles Center
12:49PM 34.1992 -118.4236 91° East 199 229 1,600 -960 Descending Los Angeles Center
12:50PM 34.1983 -118.3756 91° East 172 198 1,000 -600 Descending Los Angeles Center